Time;durP1;ratioP1;P1;durP2;ratioP2;P2;SDS_P1;SDS_P2;PMS_P1;PMS_P2;Temp;Humidity;BMP_temperature;BMP_pressure;BME280_temperature;BME280_humidity;BME280_pressure;Samples;Min_cycle;Max_cycle;Signal;HPM_P1;HPM_P2
2023/04/12 00:01:41;;;;;;;;;;;6.40;99.90;;;;;;5089526;28;1088;-68
2023/04/12 00:04:08;;;;;;;;;;;6.40;99.90;;;;;;5090159;28;1183;-68
2023/04/12 00:06:35;;;;;;;;;;;6.40;99.90;;;;;;5090105;28;1076;-68
2023/04/12 00:09:01;;;;;;;;;;;6.40;99.90;;;;;;5071478;28;1132;-68
2023/04/12 00:11:27;;;;;;;;;;;6.40;99.90;;;;;;5089860;28;1122;-68
2023/04/12 00:13:53;;;;;;;;;;;6.40;99.90;;;;;;5105900;28;1983;-68
2023/04/12 00:16:19;;;;;;;;;;;6.40;99.90;;;;;;5110157;28;1064;-68
2023/04/12 00:18:45;;;;;;;;;;;6.50;99.90;;;;;;5109178;28;1201;-68
2023/04/12 00:21:11;;;;;;;;;;;6.50;99.90;;;;;;5089448;28;1152;-68
2023/04/12 00:23:36;;;;;;;;;;;6.50;99.90;;;;;;5089791;28;1259;-68
2023/04/12 00:26:03;;;;;;;;;;;6.50;99.90;;;;;;5090225;28;1160;-68
2023/04/12 00:28:28;;;;;;;;;;;6.60;99.90;;;;;;5088592;28;1183;-68
2023/04/12 00:30:54;;;;;;;;;;;6.60;99.90;;;;;;5089913;28;1314;-68
2023/04/12 00:33:20;;;;;;;;;;;6.60;99.90;;;;;;5071607;28;1918;-68
2023/04/12 00:35:45;;;;;;;;;;;6.60;99.90;;;;;;5054047;28;1795;-68
2023/04/12 00:38:15;;;;;;;;;;;6.70;99.90;;;;;;5085250;28;1138;-68
2023/04/12 00:40:41;;;;;;;;;;;6.70;99.90;;;;;;5074954;28;1163;-68
2023/04/12 00:43:07;;;;;;;;;;;6.70;99.90;;;;;;5090764;28;1139;-68
2023/04/12 00:45:33;;;;;;;;;;;6.70;99.90;;;;;;5096156;28;1171;-68
2023/04/12 00:47:59;;;;;;;;;;;6.70;99.90;;;;;;5071559;28;1096;-68
2023/04/12 00:50:25;;;;;;;;;;;6.70;99.90;;;;;;5088635;28;1092;-68
2023/04/12 00:52:52;;;;;;;;;;;6.70;99.90;;;;;;5071414;28;1886;-68
2023/04/12 00:55:18;;;;;;;;;;;6.70;99.90;;;;;;5088974;28;1138;-68
2023/04/12 00:57:44;;;;;;;;;;;6.70;99.90;;;;;;5085219;28;1064;-68
2023/04/12 01:00:11;;;;;;;;;;;6.70;99.90;;;;;;5071588;28;1096;-68
2023/04/12 01:02:40;;;;;;;;;;;6.80;99.90;;;;;;5092981;28;1115;-68
2023/04/12 01:05:06;;;;;;;;;;;6.80;99.90;;;;;;5089383;28;1177;-68
2023/04/12 01:07:44;;;;;;;;;;;6.80;99.90;;;;;;5089454;28;1312;-68
2023/04/12 01:10:17;;;;;;;;;;;6.80;99.90;;;;;;5071446;28;1152;-68
2023/04/12 01:13:01;;;;;;;;;;;6.80;99.90;;;;;;5069967;28;1967;-68
2023/04/12 01:15:30;;;;;;;;;;;6.90;99.90;;;;;;5071295;28;1124;-68
2023/04/12 01:17:58;;;;;;;;;;;6.90;99.90;;;;;;5070746;28;1128;-68
2023/04/12 01:20:27;;;;;;;;;;;6.90;99.90;;;;;;5089174;28;1100;-68
2023/04/12 01:23:07;;;;;;;;;;;7.00;99.90;;;;;;5088837;28;1161;-68
2023/04/12 01:25:46;;;;;;;;;;;6.90;99.90;;;;;;5070646;28;1191;-68
2023/04/12 01:28:14;;;;;;;;;;;6.90;99.90;;;;;;5088882;28;1121;-68
2023/04/12 01:30:40;;;;;;;;;;;7.00;99.90;;;;;;5088776;28;1406;-68
2023/04/12 01:33:09;;;;;;;;;;;7.00;99.90;;;;;;5088446;28;2292;-68
2023/04/12 01:35:36;;;;;;;;;;;7.00;99.90;;;;;;5071013;28;1097;-68
2023/04/12 01:38:02;;;;;;;;;;;7.00;99.90;;;;;;5089319;28;1171;-68
2023/04/12 01:40:29;;;;;;;;;;;7.00;99.90;;;;;;5095745;28;1158;-68
2023/04/12 01:43:04;;;;;;;;;;;7.10;99.90;;;;;;5105936;28;1096;-68
2023/04/12 01:45:30;;;;;;;;;;;7.10;99.90;;;;;;5088444;28;1170;-68
2023/04/12 01:47:56;;;;;;;;;;;7.10;99.90;;;;;;5070914;28;1171;-68
2023/04/12 01:50:24;;;;;;;;;;;7.10;99.90;;;;;;5089184;28;1189;-68
2023/04/12 01:53:02;;;;;;;;;;;7.20;99.90;;;;;;5088217;28;1910;-68
2023/04/12 01:55:29;;;;;;;;;;;7.20;99.90;;;;;;5086418;28;1163;-68
2023/04/12 01:57:55;;;;;;;;;;;7.20;99.90;;;;;;5096198;28;1064;-68
2023/04/12 02:00:21;;;;;;;;;;;7.20;99.90;;;;;;5070534;28;1233;-68
2023/04/12 02:02:47;;;;;;;;;;;7.20;99.90;;;;;;5093867;28;1061;-68
2023/04/12 02:05:13;;;;;;;;;;;7.20;99.90;;;;;;5105025;28;1104;-68
2023/04/12 02:07:40;;;;;;;;;;;7.20;99.90;;;;;;5070120;28;1374;-68
2023/04/12 02:10:05;;;;;;;;;;;7.20;99.90;;;;;;5087998;28;1084;-68
2023/04/12 02:12:31;;;;;;;;;;;7.20;99.90;;;;;;5093123;28;1914;-68
2023/04/12 02:14:57;;;;;;;;;;;7.20;99.90;;;;;;5086428;28;1170;-68
2023/04/12 02:17:23;;;;;;;;;;;7.20;99.90;;;;;;5068625;28;1073;-68
2023/04/12 02:19:49;;;;;;;;;;;7.30;99.90;;;;;;5070264;28;1030;-68
2023/04/12 02:22:16;;;;;;;;;;;7.30;99.90;;;;;;5069701;28;1408;-68
2023/04/12 02:24:42;;;;;;;;;;;7.30;99.90;;;;;;5070494;28;1200;-68
2023/04/12 02:27:07;;;;;;;;;;;7.30;99.90;;;;;;5088360;28;1143;-68
2023/04/12 02:29:36;;;;;;;;;;;7.30;99.90;;;;;;5072974;28;1167;-68
2023/04/12 02:32:02;;;;;;;;;;;7.30;99.90;;;;;;5091504;28;1494;-68
2023/04/12 02:34:32;;;;;;;;;;;7.30;99.90;;;;;;5073777;28;1974;-68
2023/04/12 02:37:06;;;;;;;;;;;7.20;99.90;;;;;;5074349;28;1188;-68
2023/04/12 02:39:33;;;;;;;;;;;7.20;99.90;;;;;;5092231;28;1167;-68
2023/04/12 02:42:00;;;;;;;;;;;7.20;99.90;;;;;;5072400;28;1112;-68
2023/04/12 02:44:28;;;;;;;;;;;7.20;99.90;;;;;;5074279;28;997;-68
2023/04/12 02:47:08;;;;;;;;;;;7.20;99.90;;;;;;5074301;28;1155;-68
2023/04/12 02:49:35;;;;;;;;;;;7.20;99.90;;;;;;5090676;28;1108;-68
2023/04/12 02:52:01;;;;;;;;;;;7.30;99.90;;;;;;5080113;28;1199;-68
2023/04/12 02:54:34;;;;;;;;;;;7.30;99.90;;;;;;5081401;28;2028;-68
2023/04/12 02:57:02;;;;;;;;;;;7.30;99.90;;;;;;5080549;28;1303;-68
2023/04/12 02:59:34;;;;;;;;;;;7.40;99.90;;;;;;5064769;28;1234;-68
2023/04/12 03:02:09;;;;;;;;;;;7.40;99.90;;;;;;5083597;28;1178;-68
2023/04/12 03:04:36;;;;;;;;;;;7.50;99.90;;;;;;5080440;28;1191;-68
2023/04/12 03:07:02;;;;;;;;;;;7.50;99.90;;;;;;5064125;28;1271;-68
2023/04/12 03:09:37;;;;;;;;;;;7.50;99.90;;;;;;5073531;28;1235;-68
2023/04/12 03:12:04;;;;;;;;;;;7.60;99.90;;;;;;5073335;28;1024;-68
2023/04/12 03:14:34;;;;;;;;;;;7.60;99.90;;;;;;5093277;28;2078;-68
2023/04/12 03:17:00;;;;;;;;;;;7.60;99.90;;;;;;5081069;28;1179;-68
2023/04/12 03:19:27;;;;;;;;;;;7.50;99.90;;;;;;5073306;28;1167;-68
2023/04/12 03:21:54;;;;;;;;;;;7.50;99.90;;;;;;5073475;28;1151;-68
2023/04/12 03:24:20;;;;;;;;;;;7.50;99.90;;;;;;5072648;28;1159;-68
2023/04/12 03:26:46;;;;;;;;;;;7.50;99.90;;;;;;5075299;28;1165;-68
2023/04/12 03:29:17;;;;;;;;;;;7.50;99.90;;;;;;5073242;28;1155;-68
2023/04/12 03:31:46;;;;;;;;;;;7.50;99.90;;;;;;5081595;28;1354;-68
2023/04/12 03:34:12;;;;;;;;;;;7.50;99.90;;;;;;5071944;28;1969;-68
2023/04/12 03:36:45;;;;;;;;;;;7.50;99.90;;;;;;5072767;28;1462;-68
2023/04/12 03:39:21;;;;;;;;;;;7.50;99.90;;;;;;5089230;28;1100;-68
2023/04/12 03:41:51;;;;;;;;;;;7.50;99.90;;;;;;5055481;28;1101;-68
2023/04/12 03:44:18;;;;;;;;;;;7.50;99.90;;;;;;5090559;28;1158;-68
2023/04/12 03:46:45;;;;;;;;;;;7.60;99.90;;;;;;5072318;28;981;-68
2023/04/12 03:49:11;;;;;;;;;;;7.60;99.90;;;;;;5072704;28;1113;-68
2023/04/12 03:51:44;;;;;;;;;;;7.60;99.90;;;;;;5073664;28;1143;-68
2023/04/12 03:54:11;;;;;;;;;;;7.60;99.90;;;;;;5103518;28;1976;-68
2023/04/12 03:56:49;;;;;;;;;;;7.60;99.90;;;;;;5103023;28;1079;-68
2023/04/12 03:59:23;;;;;;;;;;;7.60;99.90;;;;;;5071709;28;1302;-68
2023/04/12 04:01:49;;;;;;;;;;;7.60;99.90;;;;;;5078172;28;1130;-68
2023/04/12 04:04:15;;;;;;;;;;;7.70;99.90;;;;;;5106821;28;1207;-68
2023/04/12 04:06:41;;;;;;;;;;;7.70;99.90;;;;;;5090936;28;1357;-68
2023/04/12 04:09:07;;;;;;;;;;;7.70;99.90;;;;;;5071679;28;1112;-68
2023/04/12 04:11:34;;;;;;;;;;;7.70;99.90;;;;;;5079900;28;1369;-68
2023/04/12 04:14:05;;;;;;;;;;;7.80;99.90;;;;;;5079233;28;1910;-68
2023/04/12 04:16:31;;;;;;;;;;;7.80;99.90;;;;;;5079027;28;1488;-69
2023/04/12 04:18:57;;;;;;;;;;;8.20;99.90;;;;;;5078824;28;1350;-69
2023/04/12 04:21:23;;;;;;;;;;;7.80;99.90;;;;;;5071515;28;1189;-68
2023/04/12 04:23:57;;;;;;;;;;;7.70;99.90;;;;;;5072008;28;1100;-69
2023/04/12 04:26:31;;;;;;;;;;;7.70;99.90;;;;;;5088664;28;1380;-69
2023/04/12 04:29:00;;;;;;;;;;;7.70;99.90;;;;;;5071263;28;961;-69
2023/04/12 04:31:33;;;;;;;;;;;7.70;99.90;;;;;;5071782;28;1365;-68
2023/04/12 04:34:04;;;;;;;;;;;7.70;99.90;;;;;;5071416;28;1906;-68
2023/04/12 04:36:34;;;;;;;;;;;7.70;99.90;;;;;;5063996;28;1151;-69
2023/04/12 04:39:01;;;;;;;;;;;7.60;99.90;;;;;;5089825;28;1159;-69
2023/04/12 04:41:43;;;;;;;;;;;7.60;99.90;;;;;;5070798;28;1092;-68
2023/04/12 04:44:17;;;;;;;;;;;7.60;99.90;;;;;;5070958;28;1104;-68
2023/04/12 04:46:51;;;;;;;;;;;7.60;99.90;;;;;;5105140;28;1218;-68
2023/04/12 04:49:17;;;;;;;;;;;7.60;99.90;;;;;;5070907;28;1120;-68
2023/04/12 04:51:42;;;;;;;;;;;7.60;99.90;;;;;;5071185;28;1550;-68
2023/04/12 04:54:10;;;;;;;;;;;7.60;99.90;;;;;;5077183;28;1937;-68
2023/04/12 04:56:39;;;;;;;;;;;7.60;99.90;;;;;;5070546;28;1013;-68
2023/04/12 04:59:06;;;;;;;;;;;7.60;99.90;;;;;;5071601;28;1183;-68
2023/04/12 05:01:35;;;;;;;;;;;7.50;99.90;;;;;;5089551;28;1135;-68
2023/04/12 05:04:02;;;;;;;;;;;7.50;99.90;;;;;;5069837;28;1121;-68
2023/04/12 05:06:28;;;;;;;;;;;7.50;99.90;;;;;;5071456;28;1092;-68
2023/04/12 05:08:56;;;;;;;;;;;7.50;99.90;;;;;;5071094;28;1640;-68
2023/04/12 05:11:22;;;;;;;;;;;7.50;99.90;;;;;;5074606;28;1197;-68
2023/04/12 05:13:49;;;;;;;;;;;7.50;99.90;;;;;;5090197;28;2020;-68
2023/04/12 05:16:15;;;;;;;;;;;7.60;99.90;;;;;;5079914;28;1179;-68
2023/04/12 05:18:41;;;;;;;;;;;7.50;99.90;;;;;;5072058;28;1265;-68
2023/04/12 05:21:07;;;;;;;;;;;7.50;99.90;;;;;;5097322;28;1230;-67
2023/04/12 05:23:35;;;;;;;;;;;7.50;99.90;;;;;;5109004;28;1099;-68
2023/04/12 05:26:01;;;;;;;;;;;7.50;99.90;;;;;;5090972;28;1131;-68
2023/04/12 05:28:26;;;;;;;;;;;7.40;99.90;;;;;;5090607;28;1175;-68
2023/04/12 05:30:52;;;;;;;;;;;7.40;99.90;;;;;;5077223;28;1327;-68
2023/04/12 05:33:22;;;;;;;;;;;7.40;99.90;;;;;;5070293;28;1992;-68
2023/04/12 05:35:48;;;;;;;;;;;7.40;99.90;;;;;;5089200;28;1155;-68
2023/04/12 05:38:14;;;;;;;;;;;7.40;99.90;;;;;;5069693;28;1156;-68
2023/04/12 05:40:42;;;;;;;;;;;7.40;99.90;;;;;;5070962;28;1100;-68
2023/04/12 05:43:11;;;;;;;;;;;7.40;99.90;;;;;;5071092;28;1253;-68
2023/04/12 05:45:38;;;;;;;;;;;7.40;99.90;;;;;;5088467;28;957;-68
2023/04/12 05:48:04;;;;;;;;;;;7.50;99.90;;;;;;5085975;28;1130;-68
2023/04/12 05:50:29;;;;;;;;;;;7.50;99.90;;;;;;5091317;28;1084;-68
2023/04/12 05:52:55;;;;;;;;;;;7.50;99.90;;;;;;5090233;28;1922;-68
2023/04/12 05:55:34;;;;;;;;;;;7.50;99.90;;;;;;5096434;28;1246;-68
2023/04/12 05:58:00;;;;;;;;;;;7.50;99.90;;;;;;5087928;28;1104;-68
2023/04/12 06:00:27;;;;;;;;;;;7.50;99.90;;;;;;5070192;28;1168;-68
2023/04/12 06:02:55;;;;;;;;;;;7.50;99.90;;;;;;5077381;28;1073;-68
2023/04/12 06:05:21;;;;;;;;;;;7.50;99.90;;;;;;5081152;28;1256;-68
2023/04/12 06:07:47;;;;;;;;;;;7.60;99.90;;;;;;5092143;28;1411;-68
2023/04/12 06:10:15;;;;;;;;;;;7.60;99.90;;;;;;5074275;28;1119;-68
2023/04/12 06:12:41;;;;;;;;;;;7.60;99.90;;;;;;5079075;28;1968;-68
2023/04/12 06:15:07;;;;;;;;;;;7.60;99.90;;;;;;5074772;28;1112;-68
2023/04/12 06:17:33;;;;;;;;;;;7.70;99.90;;;;;;5074315;28;1124;-69
2023/04/12 06:19:59;;;;;;;;;;;7.60;99.90;;;;;;5073797;28;1091;-68
2023/04/12 06:22:25;;;;;;;;;;;7.90;99.90;;;;;;5091929;28;1132;-68
2023/04/12 06:24:51;;;;;;;;;;;7.80;99.90;;;;;;5073952;28;1089;-68
2023/04/12 06:27:19;;;;;;;;;;;7.90;99.90;;;;;;5093493;28;1354;-69
2023/04/12 06:29:45;;;;;;;;;;;7.70;99.90;;;;;;5094756;28;1175;-68
2023/04/12 06:32:11;;;;;;;;;;;7.80;99.90;;;;;;5078021;28;1330;-68
2023/04/12 06:34:36;;;;;;;;;;;7.60;99.90;;;;;;5056679;28;1908;-69
2023/04/12 06:37:09;;;;;;;;;;;7.80;99.90;;;;;;5076866;28;1183;-68
2023/04/12 06:39:35;;;;;;;;;;;7.90;99.90;;;;;;5090433;28;1265;-68
2023/04/12 06:42:01;;;;;;;;;;;7.70;99.90;;;;;;5091165;28;1412;-68
2023/04/12 06:44:27;;;;;;;;;;;7.80;99.90;;;;;;5081788;28;1222;-68
2023/04/12 06:46:53;;;;;;;;;;;7.80;99.90;;;;;;5098352;28;1203;-69
2023/04/12 06:49:18;;;;;;;;;;;7.90;99.90;;;;;;5100737;28;1091;-68
2023/04/12 06:51:44;;;;;;;;;;;7.80;99.90;;;;;;5092191;28;1180;-68
2023/04/12 06:54:10;;;;;;;;;;;7.70;99.90;;;;;;5091162;28;1910;-68
2023/04/12 06:56:37;;;;;;;;;;;8.00;99.90;;;;;;5091460;28;1258;-68
2023/04/12 06:59:02;;;;;;;;;;;7.80;99.90;;;;;;5088296;28;1282;-68
2023/04/12 07:01:29;;;;;;;;;;;;;;;;;;5091299;28;1061;-68
2023/04/12 07:03:55;;;;;;;;;;;7.60;99.90;;;;;;5105540;28;1539;-65
2023/04/12 07:06:21;;;;;;;;;;;7.80;99.90;;;;;;5106726;28;1150;-68
2023/04/12 07:08:47;;;;;;;;;;;7.80;99.90;;;;;;5091309;28;1693;-68
2023/04/12 07:11:12;;;;;;;;;;;7.70;99.90;;;;;;5090730;28;1132;-68
2023/04/12 07:13:38;;;;;;;;;;;7.70;99.90;;;;;;5105100;28;1914;-68
2023/04/12 07:16:04;;;;;;;;;;;7.70;99.90;;;;;;5098387;28;1132;-68
2023/04/12 07:18:30;;;;;;;;;;;7.70;99.90;;;;;;5091540;28;1144;-68
2023/04/12 07:20:57;;;;;;;;;;;7.70;99.90;;;;;;5091445;28;1171;-68
2023/04/12 07:23:23;;;;;;;;;;;7.70;99.90;;;;;;5090365;28;1096;-68
2023/04/12 07:25:48;;;;;;;;;;;7.70;99.90;;;;;;5090909;28;1118;-68
2023/04/12 07:28:14;;;;;;;;;;;7.70;99.90;;;;;;5091280;28;1089;-68
2023/04/12 07:30:40;;;;;;;;;;;7.80;99.90;;;;;;5090108;28;1378;-68
2023/04/12 07:33:06;;;;;;;;;;;7.80;99.90;;;;;;5090601;28;1989;-68
2023/04/12 07:35:32;;;;;;;;;;;7.80;99.90;;;;;;5091172;28;1215;-68
2023/04/12 07:37:58;;;;;;;;;;;7.80;99.90;;;;;;5090131;28;1108;-68
2023/04/12 07:40:24;;;;;;;;;;;7.80;99.90;;;;;;5091347;28;1185;-68
2023/04/12 07:42:50;;;;;;;;;;;7.70;99.90;;;;;;5090416;28;1190;-68
2023/04/12 07:45:15;;;;;;;;;;;7.80;99.90;;;;;;5090181;28;1111;-68
2023/04/12 07:47:41;;;;;;;;;;;7.80;99.90;;;;;;5090743;28;1189;-68
2023/04/12 07:50:07;;;;;;;;;;;7.80;99.90;;;;;;5090676;28;1163;-68
2023/04/12 07:52:33;;;;;;;;;;;7.80;99.90;;;;;;5086428;28;1971;-69
2023/04/12 07:54:59;;;;;;;;;;;7.80;99.90;;;;;;5087649;28;3402;-68
2023/04/12 07:57:25;;;;;;;;;;;7.80;99.90;;;;;;5073220;28;3562;-68
2023/04/12 07:59:51;;;;;;;;;;;7.80;99.90;;;;;;5088558;28;1194;-68
2023/04/12 08:02:23;;;;;;;;;;;7.80;99.90;;;;;;5071937;28;3527;-68
2023/04/12 08:04:49;;;;;;;;;;;7.80;99.90;;;;;;5089984;28;1147;-67
2023/04/12 08:07:15;;;;;;;;;;;7.80;99.90;;;;;;5080253;28;1292;-68
2023/04/12 08:09:41;;;;;;;;;;;7.70;99.90;;;;;;5064338;28;1138;-68
2023/04/12 08:12:07;;;;;;;;;;;7.70;99.90;;;;;;5091839;28;1159;-68
2023/04/12 08:14:32;;;;;;;;;;;7.70;99.90;;;;;;5098302;28;3419;-68
2023/04/12 08:16:58;;;;;;;;;;;7.70;99.90;;;;;;5086702;28;1258;-68
2023/04/12 08:19:24;;;;;;;;;;;7.60;99.90;;;;;;5108088;28;1126;-68
2023/04/12 08:21:49;;;;;;;;;;;7.60;99.90;;;;;;5091547;28;1222;-68
2023/04/12 08:24:15;;;;;;;;;;;7.60;99.90;;;;;;5089362;28;1246;-68
2023/04/12 08:26:41;;;;;;;;;;;7.60;99.90;;;;;;5089000;28;1206;-68
2023/04/12 08:29:06;;;;;;;;;;;7.60;99.90;;;;;;5097913;28;1226;-68
2023/04/12 08:31:32;;;;;;;;;;;7.60;99.90;;;;;;5094314;28;1271;-68
2023/04/12 08:33:58;;;;;;;;;;;7.70;99.90;;;;;;5088505;28;1910;-68
2023/04/12 08:36:26;;;;;;;;;;;7.70;99.90;;;;;;5086331;28;1157;-68
2023/04/12 08:38:54;;;;;;;;;;;7.70;99.90;;;;;;5079914;28;1112;-68
2023/04/12 08:41:20;;;;;;;;;;;7.70;99.90;;;;;;5105503;28;1087;-68
2023/04/12 08:43:46;;;;;;;;;;;7.70;99.90;;;;;;5088490;28;1408;-68
2023/04/12 08:46:14;;;;;;;;;;;7.80;99.90;;;;;;5071548;28;1073;-68
2023/04/12 08:48:42;;;;;;;;;;;7.80;99.90;;;;;;5089052;28;1101;-68
2023/04/12 08:51:10;;;;;;;;;;;7.80;99.90;;;;;;5088790;28;1426;-68
2023/04/12 08:53:35;;;;;;;;;;;7.80;99.90;;;;;;5098025;28;1906;-68
2023/04/12 08:56:01;;;;;;;;;;;7.90;99.90;;;;;;5074691;28;1253;-68
2023/04/12 08:58:28;;;;;;;;;;;8.00;99.90;;;;;;5089337;28;1020;-68
2023/04/12 09:00:54;;;;;;;;;;;8.00;99.90;;;;;;5072160;28;1372;-68
2023/04/12 09:03:20;;;;;;;;;;;8.10;99.90;;;;;;5092509;28;1046;-68
2023/04/12 09:05:46;;;;;;;;;;;8.10;99.90;;;;;;5089138;28;1198;-68
2023/04/12 09:08:12;;;;;;;;;;;8.10;99.90;;;;;;5088626;28;1564;-68
2023/04/12 09:10:37;;;;;;;;;;;8.10;99.90;;;;;;5082325;28;1089;-68
2023/04/12 09:13:04;;;;;;;;;;;8.20;99.90;;;;;;5093217;28;1980;-68
2023/04/12 09:15:30;;;;;;;;;;;8.20;99.90;;;;;;5091707;28;1088;-68
2023/04/12 09:18:03;;;;;;;;;;;8.10;99.90;;;;;;5109505;28;1103;-69
2023/04/12 09:20:29;;;;;;;;;;;8.20;99.90;;;;;;5080968;28;1131;-69
2023/04/12 09:22:55;;;;;;;;;;;8.30;99.90;;;;;;5087991;28;1159;-68
2023/04/12 09:25:51;;;;;;;;;;;8.20;99.90;;;;;;5089187;28;1104;-68
2023/04/12 09:28:19;;;;;;;;;;;8.30;99.90;;;;;;5088370;28;1147;-69
2023/04/12 09:30:50;;;;;;;;;;;8.30;99.90;;;;;;5088472;28;1327;-68
2023/04/12 09:33:16;;;;;;;;;;;8.30;99.90;;;;;;5089056;28;1967;-68
2023/04/12 09:35:42;;;;;;;;;;;8.20;99.90;;;;;;5088668;28;1010;-69
2023/04/12 09:38:08;;;;;;;;;;;8.10;99.90;;;;;;5090959;28;1192;-69
2023/04/12 09:40:35;;;;;;;;;;;8.20;99.90;;;;;;5075561;28;1101;-68
2023/04/12 09:43:02;;;;;;;;;;;8.10;99.90;;;;;;5093019;28;1187;-68
2023/04/12 09:45:30;;;;;;;;;;;8.10;99.90;;;;;;5092037;28;1135;-68
2023/04/12 09:47:56;;;;;;;;;;;8.10;99.90;;;;;;5093183;28;1088;-69
2023/04/12 09:50:26;;;;;;;;;;;8.10;99.90;;;;;;5077038;28;1187;-69
2023/04/12 09:52:52;;;;;;;;;;;8.10;99.90;;;;;;5094263;28;1984;-68
2023/04/12 09:55:20;;;;;;;;;;;8.00;99.90;;;;;;5092458;28;1225;-68
2023/04/12 09:57:45;;;;;;;;;;;8.10;99.90;;;;;;5091883;28;1108;-69
2023/04/12 10:00:16;;;;;;;;;;;8.10;99.90;;;;;;5093271;28;1108;-69
2023/04/12 10:02:43;;;;;;;;;;;8.20;99.90;;;;;;5096415;28;1131;-69
2023/04/12 10:05:11;;;;;;;;;;;8.30;99.90;;;;;;5083069;28;1196;-69
2023/04/12 10:07:40;;;;;;;;;;;8.30;99.90;;;;;;5092829;28;1370;-69
2023/04/12 10:10:07;;;;;;;;;;;8.40;99.90;;;;;;5092710;28;1108;-69
2023/04/12 10:12:34;;;;;;;;;;;8.40;99.90;;;;;;5091022;28;1945;-69
2023/04/12 10:15:04;;;;;;;;;;;8.50;99.90;;;;;;5092746;28;1229;-69
2023/04/12 10:17:31;;;;;;;;;;;8.40;99.90;;;;;;5094144;28;1179;-69
2023/04/12 10:19:58;;;;;;;;;;;8.40;99.90;;;;;;5091403;28;1237;-69
2023/04/12 10:22:23;;;;;;;;;;;8.40;99.90;;;;;;5090223;28;1096;-69
2023/04/12 10:24:50;;;;;;;;;;;8.60;99.90;;;;;;5092630;28;1273;-69
2023/04/12 10:27:23;;;;;;;;;;;8.90;99.90;;;;;;5091635;28;1033;-69
2023/04/12 10:29:49;;;;;;;;;;;9.10;99.90;;;;;;5091656;28;1140;-69
2023/04/12 10:32:33;;;;;;;;;;;9.50;99.90;;;;;;5089952;28;1272;-69
2023/04/12 10:34:59;;;;;;;;;;;9.90;99.90;;;;;;5077687;28;1112;-69
2023/04/12 10:37:43;;;;;;;;;;;10.40;99.90;;;;;;5092295;28;1298;-69
2023/04/12 10:40:15;;;;;;;;;;;10.50;99.90;;;;;;5072945;28;1136;-69
2023/04/12 10:42:40;;;;;;;;;;;10.80;99.90;;;;;;5092010;28;1072;-70
2023/04/12 10:45:22;;;;;;;;;;;10.90;99.90;;;;;;5092439;28;1186;-69
2023/04/12 10:47:48;;;;;;;;;;;10.60;99.90;;;;;;5091106;28;1143;-69
2023/04/12 10:50:19;;;;;;;;;;;10.50;99.90;;;;;;5091072;28;1116;-69
2023/04/12 10:53:05;;;;;;;;;;;10.30;99.90;;;;;;5088869;28;3629;-69
2023/04/12 10:55:32;;;;;;;;;;;10.20;99.90;;;;;;5091231;28;1184;-69
2023/04/12 10:57:57;;;;;;;;;;;10.30;99.90;;;;;;5088943;28;3591;-69
2023/04/12 11:00:23;;;;;;;;;;;10.50;99.90;;;;;;5073487;28;1106;-69
2023/04/12 11:03:02;;;;;;;;;;;10.50;99.90;;;;;;5078203;28;1080;-69
2023/04/12 11:05:28;;;;;;;;;;;10.50;99.90;;;;;;5104615;28;1219;-69
2023/04/12 11:07:58;;;;;;;;;;;10.60;99.90;;;;;;5077731;28;1283;-69
2023/04/12 11:10:49;;;;;;;;;;;10.90;99.90;;;;;;5091426;28;3108;-70
2023/04/12 11:13:20;;;;;;;;;;;11.40;99.90;;;;;;5085065;28;1985;-69
2023/04/12 11:15:46;;;;;;;;;;;11.40;99.90;;;;;;5091353;28;1243;-69
2023/04/12 11:18:12;;;;;;;;;;;11.50;99.90;;;;;;5091512;28;1012;-69
2023/04/12 11:20:38;;;;;;;;;;;11.50;99.90;;;;;;5091136;28;1120;-69
2023/04/12 11:23:04;;;;;;;;;;;12.20;99.90;;;;;;5092622;28;1215;-70
2023/04/12 11:25:30;;;;;;;;;;;13.20;99.90;;;;;;5091235;28;1291;-70
2023/04/12 11:27:56;;;;;;;;;;;13.30;99.90;;;;;;5103983;28;1012;-70
2023/04/12 11:30:25;;;;;;;;;;;13.50;99.90;;;;;;5081537;28;1115;-70
2023/04/12 11:32:51;;;;;;;;;;;13.10;99.90;;;;;;5090258;28;1973;-70
2023/04/12 11:35:23;;;;;;;;;;;;;;;;;;5096890;28;1140;-70
2023/04/12 11:37:48;;;;;;;;;;;14.10;99.90;;;;;;5099995;28;1147;-70
2023/04/12 11:40:14;;;;;;;;;;;14.60;99.90;;;;;;5090969;28;1210;-70
2023/04/12 11:42:40;;;;;;;;;;;15.10;99.90;;;;;;5104802;28;1154;-70
2023/04/12 11:45:06;;;;;;;;;;;15.10;99.90;;;;;;5110968;28;1099;-70
2023/04/12 11:47:33;;;;;;;;;;;;;;;;;;5093436;28;1158;-70
2023/04/12 11:49:59;;;;;;;;;;;16.10;99.90;;;;;;5078002;28;1184;-70
2023/04/12 11:52:29;;;;;;;;;;;16.40;99.90;;;;;;5090031;28;1171;-70
2023/04/12 11:54:57;;;;;;;;;;;17.10;99.90;;;;;;5081473;28;3665;-70
2023/04/12 11:57:23;;;;;;;;;;;17.40;99.90;;;;;;5082946;28;3747;-70
2023/04/12 11:59:49;;;;;;;;;;;17.50;99.90;;;;;;5080318;28;3730;-70
2023/04/12 12:02:16;;;;;;;;;;;17.80;99.90;;;;;;5090314;28;1145;-70
2023/04/12 12:04:45;;;;;;;;;;;17.90;99.60;;;;;;5093425;28;1318;-70
2023/04/12 12:07:11;;;;;;;;;;;17.30;99.00;;;;;;5089830;28;1322;-70
2023/04/12 12:09:38;;;;;;;;;;;16.70;99.40;;;;;;5071520;28;1108;-70
2023/04/12 12:12:05;;;;;;;;;;;16.20;99.90;;;;;;5095739;28;3158;-70
2023/04/12 12:14:32;;;;;;;;;;;16.00;99.90;;;;;;5090144;28;1965;-70
2023/04/12 12:16:58;;;;;;;;;;;16.40;99.90;;;;;;5089521;28;1095;-70
2023/04/12 12:19:26;;;;;;;;;;;16.10;99.90;;;;;;5088328;28;1193;-70
2023/04/12 12:21:51;;;;;;;;;;;16.40;99.90;;;;;;5104853;28;1100;-70
2023/04/12 12:24:17;;;;;;;;;;;16.50;99.90;;;;;;5089925;28;1079;-70
2023/04/12 12:26:43;;;;;;;;;;;16.90;99.90;;;;;;5083707;28;1177;-70
2023/04/12 12:29:15;;;;;;;;;;;17.80;99.90;;;;;;5071930;28;1195;-70
2023/04/12 12:31:45;;;;;;;;;;;17.70;97.50;;;;;;5071638;28;1457;-70
2023/04/12 12:34:12;;;;;;;;;;;17.80;96.70;;;;;;5088487;28;1882;-70
2023/04/12 12:36:38;;;;;;;;;;;17.80;97.70;;;;;;5090104;28;1096;-70
2023/04/12 12:39:06;;;;;;;;;;;17.40;98.10;;;;;;5090114;28;1130;-70
2023/04/12 12:41:32;;;;;;;;;;;17.00;99.80;;;;;;5070929;28;1116;-70
2023/04/12 12:43:58;;;;;;;;;;;16.10;98.70;;;;;;5089509;28;1157;-70
2023/04/12 12:46:25;;;;;;;;;;;15.80;99.90;;;;;;5089952;28;1096;-70
2023/04/12 12:48:51;;;;;;;;;;;15.50;99.90;;;;;;5088948;28;1151;-70
2023/04/12 12:51:18;;;;;;;;;;;15.20;99.90;;;;;;5089496;28;1143;-70
2023/04/12 12:53:44;;;;;;;;;;;14.90;99.90;;;;;;5088291;28;1965;-70
2023/04/12 12:56:10;;;;;;;;;;;14.80;99.90;;;;;;5068350;28;1188;-70
2023/04/12 12:58:36;;;;;;;;;;;14.60;99.90;;;;;;5089745;28;1112;-70
2023/04/12 13:01:03;;;;;;;;;;;14.50;99.90;;;;;;5088523;28;1139;-70
2023/04/12 13:03:29;;;;;;;;;;;14.20;99.90;;;;;;5099717;28;1136;-70
2023/04/12 13:05:55;;;;;;;;;;;13.90;99.90;;;;;;5091225;28;1335;-70
2023/04/12 13:08:21;;;;;;;;;;;13.70;99.90;;;;;;5109378;28;956;-71
2023/04/12 13:10:47;;;;;;;;;;;13.50;99.90;;;;;;5090976;28;1133;-70
2023/04/12 13:13:13;;;;;;;;;;;13.20;99.90;;;;;;5080910;28;1973;-70
2023/04/12 13:15:38;;;;;;;;;;;13.10;99.90;;;;;;5073953;28;1216;-70
2023/04/12 13:18:04;;;;;;;;;;;12.60;99.90;;;;;;5099643;28;1174;-70
2023/04/12 13:20:30;;;;;;;;;;;12.60;99.90;;;;;;5085319;28;1156;-70
2023/04/12 13:22:56;;;;;;;;;;;12.60;99.90;;;;;;5070835;28;1013;-70
2023/04/12 13:25:21;;;;;;;;;;;12.60;99.90;;;;;;5089210;28;1132;-70
2023/04/12 13:27:48;;;;;;;;;;;12.40;99.90;;;;;;5072636;28;1243;-70
2023/04/12 13:30:14;;;;;;;;;;;12.40;99.90;;;;;;5088346;28;1100;-70
2023/04/12 13:32:39;;;;;;;;;;;12.20;99.90;;;;;;5088718;28;1971;-70
2023/04/12 13:35:05;;;;;;;;;;;11.90;99.90;;;;;;5089017;28;1088;-69
2023/04/12 13:37:32;;;;;;;;;;;11.70;99.90;;;;;;5087915;28;1201;-68
2023/04/12 13:39:57;;;;;;;;;;;11.60;99.90;;;;;;5088990;28;1084;-69
2023/04/12 13:42:23;;;;;;;;;;;11.50;99.90;;;;;;5089443;28;1131;-68
2023/04/12 13:44:49;;;;;;;;;;;11.30;99.90;;;;;;5085960;28;3862;-68
2023/04/12 13:47:15;;;;;;;;;;;11.10;99.90;;;;;;5080694;28;3857;-68
2023/04/12 13:49:41;;;;;;;;;;;11.10;99.90;;;;;;5088254;28;1128;-68
2023/04/12 13:52:07;;;;;;;;;;;11.10;99.90;;;;;;5088104;28;3789;-67
2023/04/12 13:54:32;;;;;;;;;;;11.30;99.90;;;;;;5087935;28;1974;-67
2023/04/12 13:56:58;;;;;;;;;;;11.50;99.90;;;;;;5103647;28;2203;-68
2023/04/12 13:59:25;;;;;;;;;;;11.50;99.90;;;;;;5070160;28;1191;-68
2023/04/12 14:01:51;;;;;;;;;;;11.70;99.90;;;;;;5070028;28;1187;-67
2023/04/12 14:04:16;;;;;;;;;;;11.80;99.90;;;;;;5087668;28;3140;-68
2023/04/12 14:06:44;;;;;;;;;;;12.10;99.90;;;;;;5087897;28;1146;-68
2023/04/12 14:09:23;;;;;;;;;;;12.60;99.90;;;;;;5089148;28;1088;-68
2023/04/12 14:11:49;;;;;;;;;;;13.00;99.90;;;;;;5087466;28;1231;-68
2023/04/12 14:14:15;;;;;;;;;;;13.60;99.90;;;;;;5104861;28;2031;-68
2023/04/12 14:16:41;;;;;;;;;;;14.10;99.90;;;;;;5085257;28;3649;-68
2023/04/12 14:19:08;;;;;;;;;;;15.10;99.90;;;;;;5084938;28;3654;-68
2023/04/12 14:21:33;;;;;;;;;;;16.00;99.90;;;;;;5087993;28;1126;-68
2023/04/12 14:23:59;;;;;;;;;;;16.90;99.90;;;;;;5089454;28;1175;-68
2023/04/12 14:26:25;;;;;;;;;;;17.00;99.90;;;;;;5091419;28;1234;-68
2023/04/12 14:28:51;;;;;;;;;;;16.60;99.90;;;;;;5092089;28;1084;-68
2023/04/12 14:31:16;;;;;;;;;;;15.80;99.90;;;;;;5092306;28;1362;-68
2023/04/12 14:33:42;;;;;;;;;;;15.20;99.90;;;;;;5090749;28;1898;-68
2023/04/12 14:36:08;;;;;;;;;;;14.70;99.90;;;;;;5074334;28;1183;-68
2023/04/12 14:38:33;;;;;;;;;;;14.40;99.90;;;;;;5091756;28;1182;-68
2023/04/12 14:41:00;;;;;;;;;;;14.20;99.30;;;;;;5065794;28;3582;-68
2023/04/12 14:43:26;;;;;;;;;;;13.80;98.20;;;;;;5090585;28;3693;-68